sensor_id;sensor_type;location;lat;lon;timestamp;P1;durP1;ratioP1;P2;durP2;ratioP2
27533;SDS011;14973;51.460;7.008;2022-10-18T00:02:03;9.07;;;4.32;;
27533;SDS011;14973;51.460;7.008;2022-10-18T00:04:29;10.05;;;3.35;;
27533;SDS011;14973;51.460;7.008;2022-10-18T00:06:55;4.03;;;2.70;;
27533;SDS011;14973;51.460;7.008;2022-10-18T00:09:21;7.90;;;2.67;;
27533;SDS011;14973;51.460;7.008;2022-10-18T00:11:46;6.47;;;2.28;;
27533;SDS011;14973;51.460;7.008;2022-10-18T00:14:12;4.35;;;2.25;;
27533;SDS011;14973;51.460;7.008;2022-10-18T00:16:37;3.53;;;2.25;;
27533;SDS011;14973;51.460;7.008;2022-10-18T00:19:03;6.07;;;2.35;;
27533;SDS011;14973;51.460;7.008;2022-10-18T00:21:29;5.55;;;2.15;;
27533;SDS011;14973;51.460;7.008;2022-10-18T00:23:54;5.10;;;2.47;;
27533;SDS011;14973;51.460;7.008;2022-10-18T00:26:22;5.68;;;2.63;;
27533;SDS011;14973;51.460;7.008;2022-10-18T00:28:56;10.57;;;2.72;;
27533;SDS011;14973;51.460;7.008;2022-10-18T00:31:27;2.90;;;2.05;;
27533;SDS011;14973;51.460;7.008;2022-10-18T00:33:55;4.65;;;2.75;;
27533;SDS011;14973;51.460;7.008;2022-10-18T00:36:23;11.98;;;3.00;;
27533;SDS011;14973;51.460;7.008;2022-10-18T00:38:49;4.15;;;2.50;;
27533;SDS011;14973;51.460;7.008;2022-10-18T00:41:23;7.22;;;2.92;;
27533;SDS011;14973;51.460;7.008;2022-10-18T00:46:19;4.40;;;2.78;;
27533;SDS011;14973;51.460;7.008;2022-10-18T00:48:44;6.57;;;2.28;;
27533;SDS011;14973;51.460;7.008;2022-10-18T00:51:10;3.65;;;2.30;;
27533;SDS011;14973;51.460;7.008;2022-10-18T00:53:36;4.90;;;2.42;;
27533;SDS011;14973;51.460;7.008;2022-10-18T00:56:02;3.83;;;2.65;;
27533;SDS011;14973;51.460;7.008;2022-10-18T00:58:28;5.95;;;2.58;;
27533;SDS011;14973;51.460;7.008;2022-10-18T01:00:54;6.75;;;2.47;;
27533;SDS011;14973;51.460;7.008;2022-10-18T01:03:19;4.13;;;2.33;;
27533;SDS011;14973;51.460;7.008;2022-10-18T01:05:45;5.10;;;2.45;;
27533;SDS011;14973;51.460;7.008;2022-10-18T01:11:06;3.53;;;2.28;;
27533;SDS011;14973;51.460;7.008;2022-10-18T01:16:33;5.55;;;2.85;;
27533;SDS011;14973;51.460;7.008;2022-10-18T01:19:05;6.63;;;2.40;;
27533;SDS011;14973;51.460;7.008;2022-10-18T01:21:54;5.55;;;3.00;;
27533;SDS011;14973;51.460;7.008;2022-10-18T01:30:20;7.40;;;2.90;;
27533;SDS011;14973;51.460;7.008;2022-10-18T01:32:50;4.50;;;2.45;;
27533;SDS011;14973;51.460;7.008;2022-10-18T01:35:22;5.35;;;2.97;;
27533;SDS011;14973;51.460;7.008;2022-10-18T01:37:53;8.48;;;3.15;;
27533;SDS011;14973;51.460;7.008;2022-10-18T01:40:23;4.65;;;2.78;;
27533;SDS011;14973;51.460;7.008;2022-10-18T01:42:49;4.93;;;2.60;;
27533;SDS011;14973;51.460;7.008;2022-10-18T01:45:15;10.60;;;3.40;;
27533;SDS011;14973;51.460;7.008;2022-10-18T01:47:43;9.27;;;3.10;;
27533;SDS011;14973;51.460;7.008;2022-10-18T01:50:10;7.95;;;3.65;;
27533;SDS011;14973;51.460;7.008;2022-10-18T01:52:47;9.75;;;3.97;;
27533;SDS011;14973;51.460;7.008;2022-10-18T01:55:14;8.35;;;3.33;;
27533;SDS011;14973;51.460;7.008;2022-10-18T01:57:40;5.80;;;3.40;;
27533;SDS011;14973;51.460;7.008;2022-10-18T02:00:36;3.95;;;2.78;;
27533;SDS011;14973;51.460;7.008;2022-10-18T02:03:16;8.73;;;5.38;;
27533;SDS011;14973;51.460;7.008;2022-10-18T02:08:24;8.15;;;3.20;;
27533;SDS011;14973;51.460;7.008;2022-10-18T02:13:37;6.72;;;3.70;;
27533;SDS011;14973;51.460;7.008;2022-10-18T02:16:08;12.77;;;4.15;;
27533;SDS011;14973;51.460;7.008;2022-10-18T02:18:38;11.55;;;5.35;;
27533;SDS011;14973;51.460;7.008;2022-10-18T02:21:09;8.18;;;3.42;;
27533;SDS011;14973;51.460;7.008;2022-10-18T02:23:39;10.95;;;3.58;;
27533;SDS011;14973;51.460;7.008;2022-10-18T02:26:06;8.68;;;4.22;;
27533;SDS011;14973;51.460;7.008;2022-10-18T02:28:32;12.55;;;4.00;;
27533;SDS011;14973;51.460;7.008;2022-10-18T02:31:01;9.30;;;4.15;;
27533;SDS011;14973;51.460;7.008;2022-10-18T02:33:56;5.88;;;3.53;;
27533;SDS011;14973;51.460;7.008;2022-10-18T02:36:50;7.57;;;4.22;;
27533;SDS011;14973;51.460;7.008;2022-10-18T02:39:18;9.23;;;4.33;;
27533;SDS011;14973;51.460;7.008;2022-10-18T02:41:47;7.47;;;4.22;;
27533;SDS011;14973;51.460;7.008;2022-10-18T02:44:12;9.75;;;4.47;;
27533;SDS011;14973;51.460;7.008;2022-10-18T02:46:38;7.80;;;4.15;;
27533;SDS011;14973;51.460;7.008;2022-10-18T02:49:05;8.88;;;4.50;;
27533;SDS011;14973;51.460;7.008;2022-10-18T02:51:30;7.70;;;4.43;;
27533;SDS011;14973;51.460;7.008;2022-10-18T02:53:56;8.65;;;4.80;;
27533;SDS011;14973;51.460;7.008;2022-10-18T02:56:22;13.55;;;5.00;;
27533;SDS011;14973;51.460;7.008;2022-10-18T02:58:47;9.15;;;5.20;;
27533;SDS011;14973;51.460;7.008;2022-10-18T03:01:13;10.05;;;5.53;;
27533;SDS011;14973;51.460;7.008;2022-10-18T03:03:38;9.82;;;5.25;;
27533;SDS011;14973;51.460;7.008;2022-10-18T03:06:04;11.80;;;4.68;;
27533;SDS011;14973;51.460;7.008;2022-10-18T03:08:29;12.30;;;5.47;;
27533;SDS011;14973;51.460;7.008;2022-10-18T03:10:55;14.48;;;5.75;;
27533;SDS011;14973;51.460;7.008;2022-10-18T03:13:21;12.85;;;5.60;;
27533;SDS011;14973;51.460;7.008;2022-10-18T03:15:46;11.30;;;5.70;;
27533;SDS011;14973;51.460;7.008;2022-10-18T03:18:12;10.88;;;5.43;;
27533;SDS011;14973;51.460;7.008;2022-10-18T03:20:38;11.57;;;5.80;;
27533;SDS011;14973;51.460;7.008;2022-10-18T03:23:04;10.80;;;5.22;;
27533;SDS011;14973;51.460;7.008;2022-10-18T03:25:31;13.93;;;5.85;;
27533;SDS011;14973;51.460;7.008;2022-10-18T03:27:57;19.33;;;7.22;;
27533;SDS011;14973;51.460;7.008;2022-10-18T03:30:23;10.73;;;6.55;;
27533;SDS011;14973;51.460;7.008;2022-10-18T03:32:48;16.35;;;5.95;;
27533;SDS011;14973;51.460;7.008;2022-10-18T03:35:14;13.55;;;6.40;;
27533;SDS011;14973;51.460;7.008;2022-10-18T03:37:40;14.18;;;5.40;;
27533;SDS011;14973;51.460;7.008;2022-10-18T03:40:05;14.05;;;6.70;;
27533;SDS011;14973;51.460;7.008;2022-10-18T03:42:32;13.55;;;6.70;;
27533;SDS011;14973;51.460;7.008;2022-10-18T03:44:57;16.70;;;7.00;;
27533;SDS011;14973;51.460;7.008;2022-10-18T03:47:23;15.57;;;7.20;;
27533;SDS011;14973;51.460;7.008;2022-10-18T03:49:48;23.52;;;8.23;;
27533;SDS011;14973;51.460;7.008;2022-10-18T03:52:14;14.95;;;7.50;;
27533;SDS011;14973;51.460;7.008;2022-10-18T03:54:39;17.48;;;8.60;;
27533;SDS011;14973;51.460;7.008;2022-10-18T03:57:05;17.58;;;8.52;;
27533;SDS011;14973;51.460;7.008;2022-10-18T03:59:31;17.50;;;9.27;;
27533;SDS011;14973;51.460;7.008;2022-10-18T04:01:56;26.77;;;9.70;;
27533;SDS011;14973;51.460;7.008;2022-10-18T04:04:22;21.02;;;9.10;;
27533;SDS011;14973;51.460;7.008;2022-10-18T04:06:47;27.42;;;11.00;;
27533;SDS011;14973;51.460;7.008;2022-10-18T04:09:13;21.52;;;10.65;;
27533;SDS011;14973;51.460;7.008;2022-10-18T04:11:38;21.50;;;10.63;;
27533;SDS011;14973;51.460;7.008;2022-10-18T04:14:04;27.83;;;12.20;;
27533;SDS011;14973;51.460;7.008;2022-10-18T04:16:30;29.42;;;12.75;;
27533;SDS011;14973;51.460;7.008;2022-10-18T04:18:55;26.65;;;12.57;;
27533;SDS011;14973;51.460;7.008;2022-10-18T04:21:21;23.38;;;12.20;;
27533;SDS011;14973;51.460;7.008;2022-10-18T04:23:47;29.55;;;12.63;;
27533;SDS011;14973;51.460;7.008;2022-10-18T04:26:13;26.30;;;12.52;;
27533;SDS011;14973;51.460;7.008;2022-10-18T04:28:40;29.35;;;12.80;;
27533;SDS011;14973;51.460;7.008;2022-10-18T04:31:06;34.45;;;12.70;;
27533;SDS011;14973;51.460;7.008;2022-10-18T04:33:32;29.17;;;13.43;;
27533;SDS011;14973;51.460;7.008;2022-10-18T04:35:58;29.38;;;12.95;;
27533;SDS011;14973;51.460;7.008;2022-10-18T04:38:24;25.55;;;12.45;;
27533;SDS011;14973;51.460;7.008;2022-10-18T04:40:49;32.00;;;14.02;;
27533;SDS011;14973;51.460;7.008;2022-10-18T04:43:15;28.52;;;13.65;;
27533;SDS011;14973;51.460;7.008;2022-10-18T04:45:40;28.02;;;13.93;;
27533;SDS011;14973;51.460;7.008;2022-10-18T04:48:08;29.65;;;13.45;;
27533;SDS011;14973;51.460;7.008;2022-10-18T04:50:34;27.42;;;12.20;;
27533;SDS011;14973;51.460;7.008;2022-10-18T04:52:59;31.40;;;12.65;;
27533;SDS011;14973;51.460;7.008;2022-10-18T04:55:25;36.65;;;13.32;;
27533;SDS011;14973;51.460;7.008;2022-10-18T04:57:51;26.83;;;12.80;;
27533;SDS011;14973;51.460;7.008;2022-10-18T05:00:17;28.77;;;13.10;;
27533;SDS011;14973;51.460;7.008;2022-10-18T05:02:43;32.10;;;13.73;;
27533;SDS011;14973;51.460;7.008;2022-10-18T05:05:08;29.42;;;14.05;;
27533;SDS011;14973;51.460;7.008;2022-10-18T05:07:34;31.58;;;13.73;;
27533;SDS011;14973;51.460;7.008;2022-10-18T05:09:59;28.83;;;12.63;;
27533;SDS011;14973;51.460;7.008;2022-10-18T05:12:25;36.25;;;14.25;;
27533;SDS011;14973;51.460;7.008;2022-10-18T05:14:51;28.05;;;13.82;;
27533;SDS011;14973;51.460;7.008;2022-10-18T05:17:16;30.08;;;14.70;;
27533;SDS011;14973;51.460;7.008;2022-10-18T05:19:42;35.85;;;13.98;;
27533;SDS011;14973;51.460;7.008;2022-10-18T05:22:07;34.72;;;14.88;;
27533;SDS011;14973;51.460;7.008;2022-10-18T05:24:33;26.40;;;13.52;;
27533;SDS011;14973;51.460;7.008;2022-10-18T05:26:58;30.52;;;14.15;;
27533;SDS011;14973;51.460;7.008;2022-10-18T05:29:24;29.33;;;13.85;;
27533;SDS011;14973;51.460;7.008;2022-10-18T05:31:50;31.23;;;14.27;;
27533;SDS011;14973;51.460;7.008;2022-10-18T05:34:16;29.80;;;14.10;;
27533;SDS011;14973;51.460;7.008;2022-10-18T05:36:42;29.77;;;14.93;;
27533;SDS011;14973;51.460;7.008;2022-10-18T05:39:08;30.13;;;15.30;;
27533;SDS011;14973;51.460;7.008;2022-10-18T05:41:33;28.23;;;14.77;;
27533;SDS011;14973;51.460;7.008;2022-10-18T05:44:04;32.47;;;15.32;;
27533;SDS011;14973;51.460;7.008;2022-10-18T05:46:30;29.50;;;14.55;;
27533;SDS011;14973;51.460;7.008;2022-10-18T05:48:55;31.38;;;15.80;;
27533;SDS011;14973;51.460;7.008;2022-10-18T05:51:21;34.72;;;16.15;;
27533;SDS011;14973;51.460;7.008;2022-10-18T05:53:47;36.30;;;15.98;;
27533;SDS011;14973;51.460;7.008;2022-10-18T05:56:12;36.13;;;16.08;;
27533;SDS011;14973;51.460;7.008;2022-10-18T05:58:38;36.53;;;16.65;;
27533;SDS011;14973;51.460;7.008;2022-10-18T06:01:05;31.17;;;15.68;;
27533;SDS011;14973;51.460;7.008;2022-10-18T06:03:32;34.10;;;16.05;;
27533;SDS011;14973;51.460;7.008;2022-10-18T06:05:58;44.80;;;18.92;;
27533;SDS011;14973;51.460;7.008;2022-10-18T06:08:25;42.17;;;17.45;;
27533;SDS011;14973;51.460;7.008;2022-10-18T06:10:51;36.50;;;18.55;;
27533;SDS011;14973;51.460;7.008;2022-10-18T06:13:16;41.17;;;19.27;;
27533;SDS011;14973;51.460;7.008;2022-10-18T06:15:42;45.20;;;19.90;;
27533;SDS011;14973;51.460;7.008;2022-10-18T06:18:07;51.72;;;20.27;;
27533;SDS011;14973;51.460;7.008;2022-10-18T06:20:33;57.13;;;20.95;;
27533;SDS011;14973;51.460;7.008;2022-10-18T06:22:59;45.28;;;20.10;;
27533;SDS011;14973;51.460;7.008;2022-10-18T06:25:24;49.78;;;21.15;;
27533;SDS011;14973;51.460;7.008;2022-10-18T06:27:50;57.28;;;21.77;;
27533;SDS011;14973;51.460;7.008;2022-10-18T06:30:15;50.83;;;20.70;;
27533;SDS011;14973;51.460;7.008;2022-10-18T06:32:41;50.40;;;21.25;;
27533;SDS011;14973;51.460;7.008;2022-10-18T06:35:07;51.30;;;20.80;;
27533;SDS011;14973;51.460;7.008;2022-10-18T06:37:33;48.55;;;20.80;;
27533;SDS011;14973;51.460;7.008;2022-10-18T06:39:59;49.00;;;21.13;;
27533;SDS011;14973;51.460;7.008;2022-10-18T06:42:25;53.95;;;21.35;;
27533;SDS011;14973;51.460;7.008;2022-10-18T06:44:50;57.30;;;22.13;;
27533;SDS011;14973;51.460;7.008;2022-10-18T06:47:16;52.33;;;20.80;;
27533;SDS011;14973;51.460;7.008;2022-10-18T06:49:41;54.75;;;21.98;;
27533;SDS011;14973;51.460;7.008;2022-10-18T06:52:07;58.38;;;22.10;;
27533;SDS011;14973;51.460;7.008;2022-10-18T06:54:33;57.55;;;22.33;;
27533;SDS011;14973;51.460;7.008;2022-10-18T06:56:58;52.53;;;20.88;;
27533;SDS011;14973;51.460;7.008;2022-10-18T06:59:26;57.53;;;22.17;;
27533;SDS011;14973;51.460;7.008;2022-10-18T07:01:52;53.67;;;21.02;;
27533;SDS011;14973;51.460;7.008;2022-10-18T07:04:18;54.10;;;21.77;;
27533;SDS011;14973;51.460;7.008;2022-10-18T07:06:43;55.78;;;22.25;;
27533;SDS011;14973;51.460;7.008;2022-10-18T07:09:09;61.83;;;23.13;;
27533;SDS011;14973;51.460;7.008;2022-10-18T07:11:34;55.83;;;22.33;;
27533;SDS011;14973;51.460;7.008;2022-10-18T07:14:00;53.60;;;22.83;;
27533;SDS011;14973;51.460;7.008;2022-10-18T07:16:29;66.78;;;23.83;;
27533;SDS011;14973;51.460;7.008;2022-10-18T07:18:56;58.25;;;23.08;;
27533;SDS011;14973;51.460;7.008;2022-10-18T07:21:22;66.60;;;25.17;;
27533;SDS011;14973;51.460;7.008;2022-10-18T07:23:49;68.50;;;24.85;;
27533;SDS011;14973;51.460;7.008;2022-10-18T07:26:22;60.55;;;24.23;;
27533;SDS011;14973;51.460;7.008;2022-10-18T07:28:54;60.28;;;25.33;;
27533;SDS011;14973;51.460;7.008;2022-10-18T07:31:22;60.42;;;24.38;;
27533;SDS011;14973;51.460;7.008;2022-10-18T07:33:48;64.78;;;24.98;;
27533;SDS011;14973;51.460;7.008;2022-10-18T07:36:14;62.15;;;24.40;;
27533;SDS011;14973;51.460;7.008;2022-10-18T07:38:39;58.08;;;23.35;;
27533;SDS011;14973;51.460;7.008;2022-10-18T07:41:05;64.45;;;25.85;;
27533;SDS011;14973;51.460;7.008;2022-10-18T07:43:32;69.40;;;25.63;;
27533;SDS011;14973;51.460;7.008;2022-10-18T07:45:59;54.80;;;23.63;;
27533;SDS011;14973;51.460;7.008;2022-10-18T07:48:27;72.78;;;26.45;;
27533;SDS011;14973;51.460;7.008;2022-10-18T07:50:53;60.33;;;24.90;;
27533;SDS011;14973;51.460;7.008;2022-10-18T07:53:21;68.47;;;26.15;;
27533;SDS011;14973;51.460;7.008;2022-10-18T07:55:47;57.58;;;25.88;;
27533;SDS011;14973;51.460;7.008;2022-10-18T07:58:12;67.25;;;29.75;;
27533;SDS011;14973;51.460;7.008;2022-10-18T08:00:38;63.03;;;26.85;;
27533;SDS011;14973;51.460;7.008;2022-10-18T08:03:04;62.47;;;26.13;;
27533;SDS011;14973;51.460;7.008;2022-10-18T08:05:30;73.43;;;30.27;;
27533;SDS011;14973;51.460;7.008;2022-10-18T08:07:55;99.78;;;43.00;;
27533;SDS011;14973;51.460;7.008;2022-10-18T08:10:21;71.05;;;31.58;;
27533;SDS011;14973;51.460;7.008;2022-10-18T08:12:48;61.42;;;27.00;;
27533;SDS011;14973;51.460;7.008;2022-10-18T08:15:14;62.78;;;27.50;;
27533;SDS011;14973;51.460;7.008;2022-10-18T08:17:40;71.80;;;28.92;;
27533;SDS011;14973;51.460;7.008;2022-10-18T08:20:07;67.65;;;29.08;;
27533;SDS011;14973;51.460;7.008;2022-10-18T08:22:34;70.03;;;30.80;;
27533;SDS011;14973;51.460;7.008;2022-10-18T08:24:59;65.10;;;29.45;;
27533;SDS011;14973;51.460;7.008;2022-10-18T08:27:25;64.03;;;28.92;;
27533;SDS011;14973;51.460;7.008;2022-10-18T08:29:51;63.58;;;30.08;;
27533;SDS011;14973;51.460;7.008;2022-10-18T08:32:17;72.82;;;32.15;;
27533;SDS011;14973;51.460;7.008;2022-10-18T08:34:42;81.03;;;34.60;;
27533;SDS011;14973;51.460;7.008;2022-10-18T08:37:08;71.65;;;33.40;;
27533;SDS011;14973;51.460;7.008;2022-10-18T08:39:34;69.30;;;32.10;;
27533;SDS011;14973;51.460;7.008;2022-10-18T08:42:08;76.28;;;35.35;;
27533;SDS011;14973;51.460;7.008;2022-10-18T08:44:46;82.43;;;38.40;;
27533;SDS011;14973;51.460;7.008;2022-10-18T08:47:15;84.97;;;38.47;;
27533;SDS011;14973;51.460;7.008;2022-10-18T08:50:35;79.47;;;37.30;;
27533;SDS011;14973;51.460;7.008;2022-10-18T08:52:52;81.18;;;39.63;;
27533;SDS011;14973;51.460;7.008;2022-10-18T08:55:31;90.30;;;42.65;;
27533;SDS011;14973;51.460;7.008;2022-10-18T09:08:55;116.25;;;53.20;;
27533;SDS011;14973;51.460;7.008;2022-10-18T09:11:28;118.95;;;51.13;;
27533;SDS011;14973;51.460;7.008;2022-10-18T09:17:16;127.00;;;54.70;;
27533;SDS011;14973;51.460;7.008;2022-10-18T09:22:55;121.22;;;55.67;;
27533;SDS011;14973;51.460;7.008;2022-10-18T09:25:36;135.00;;;55.63;;
27533;SDS011;14973;51.460;7.008;2022-10-18T09:31:14;124.65;;;56.13;;
27533;SDS011;14973;51.460;7.008;2022-10-18T09:36:19;125.32;;;61.78;;
27533;SDS011;14973;51.460;7.008;2022-10-18T09:38:47;125.72;;;61.30;;
27533;SDS011;14973;51.460;7.008;2022-10-18T09:44:26;138.77;;;58.13;;
27533;SDS011;14973;51.460;7.008;2022-10-18T09:47:02;119.95;;;53.40;;
27533;SDS011;14973;51.460;7.008;2022-10-18T09:49:41;113.90;;;52.35;;
27533;SDS011;14973;51.460;7.008;2022-10-18T09:52:20;114.65;;;54.22;;
27533;SDS011;14973;51.460;7.008;2022-10-18T09:54:55;103.75;;;50.47;;
27533;SDS011;14973;51.460;7.008;2022-10-18T09:57:43;98.85;;;49.45;;
27533;SDS011;14973;51.460;7.008;2022-10-18T10:00:17;101.88;;;52.13;;
27533;SDS011;14973;51.460;7.008;2022-10-18T10:02:48;100.50;;;50.80;;
27533;SDS011;14973;51.460;7.008;2022-10-18T10:05:14;95.82;;;49.45;;
27533;SDS011;14973;51.460;7.008;2022-10-18T10:07:41;91.28;;;48.47;;
27533;SDS011;14973;51.460;7.008;2022-10-18T10:10:25;93.60;;;51.17;;
27533;SDS011;14973;51.460;7.008;2022-10-18T10:13:06;84.38;;;49.42;;
27533;SDS011;14973;51.460;7.008;2022-10-18T10:16:01;81.85;;;44.58;;
27533;SDS011;14973;51.460;7.008;2022-10-18T10:18:31;73.43;;;40.40;;
27533;SDS011;14973;51.460;7.008;2022-10-18T10:21:04;77.90;;;40.40;;
27533;SDS011;14973;51.460;7.008;2022-10-18T10:23:35;71.78;;;38.45;;
27533;SDS011;14973;51.460;7.008;2022-10-18T10:26:04;60.72;;;34.85;;
27533;SDS011;14973;51.460;7.008;2022-10-18T10:28:44;66.20;;;33.35;;
27533;SDS011;14973;51.460;7.008;2022-10-18T10:33:40;68.80;;;34.70;;
27533;SDS011;14973;51.460;7.008;2022-10-18T10:36:29;64.40;;;33.10;;
27533;SDS011;14973;51.460;7.008;2022-10-18T10:39:06;51.65;;;28.48;;
27533;SDS011;14973;51.460;7.008;2022-10-18T10:41:36;47.20;;;26.23;;
27533;SDS011;14973;51.460;7.008;2022-10-18T10:44:04;47.47;;;24.77;;
27533;SDS011;14973;51.460;7.008;2022-10-18T10:46:42;46.15;;;23.05;;
27533;SDS011;14973;51.460;7.008;2022-10-18T10:49:15;47.20;;;23.35;;
27533;SDS011;14973;51.460;7.008;2022-10-18T10:52:12;44.00;;;23.00;;
27533;SDS011;14973;51.460;7.008;2022-10-18T10:54:43;54.10;;;25.08;;
27533;SDS011;14973;51.460;7.008;2022-10-18T10:59:49;42.50;;;22.40;;
27533;SDS011;14973;51.460;7.008;2022-10-18T11:07:47;45.90;;;20.25;;
27533;SDS011;14973;51.460;7.008;2022-10-18T11:10:17;38.58;;;20.20;;
27533;SDS011;14973;51.460;7.008;2022-10-18T11:15:51;39.38;;;19.33;;
27533;SDS011;14973;51.460;7.008;2022-10-18T11:18:23;37.10;;;18.38;;
27533;SDS011;14973;51.460;7.008;2022-10-18T11:21:04;36.45;;;17.55;;
27533;SDS011;14973;51.460;7.008;2022-10-18T11:23:39;40.53;;;17.75;;
27533;SDS011;14973;51.460;7.008;2022-10-18T11:41:54;34.92;;;15.27;;
27533;SDS011;14973;51.460;7.008;2022-10-18T11:54:54;34.90;;;15.07;;
27533;SDS011;14973;51.460;7.008;2022-10-18T11:57:45;27.08;;;13.02;;
27533;SDS011;14973;51.460;7.008;2022-10-18T12:00:36;24.83;;;10.48;;
27533;SDS011;14973;51.460;7.008;2022-10-18T12:05:50;20.50;;;9.32;;
27533;SDS011;14973;51.460;7.008;2022-10-18T12:08:20;29.23;;;11.00;;
27533;SDS011;14973;51.460;7.008;2022-10-18T12:10:59;22.33;;;10.02;;
27533;SDS011;14973;51.460;7.008;2022-10-18T12:13:40;19.50;;;8.93;;
27533;SDS011;14973;51.460;7.008;2022-10-18T12:16:10;25.60;;;13.43;;
27533;SDS011;14973;51.460;7.008;2022-10-18T12:18:47;28.48;;;9.40;;
27533;SDS011;14973;51.460;7.008;2022-10-18T12:21:13;28.52;;;10.70;;
27533;SDS011;14973;51.460;7.008;2022-10-18T12:23:44;27.27;;;12.10;;
27533;SDS011;14973;51.460;7.008;2022-10-18T12:26:18;33.15;;;17.08;;
27533;SDS011;14973;51.460;7.008;2022-10-18T12:28:47;29.90;;;13.23;;
27533;SDS011;14973;51.460;7.008;2022-10-18T12:31:45;28.27;;;13.38;;
27533;SDS011;14973;51.460;7.008;2022-10-18T12:39:22;31.40;;;12.05;;
27533;SDS011;14973;51.460;7.008;2022-10-18T12:41:53;28.50;;;11.60;;
27533;SDS011;14973;51.460;7.008;2022-10-18T12:44:22;18.95;;;7.20;;
27533;SDS011;14973;51.460;7.008;2022-10-18T12:46:55;15.60;;;6.82;;
27533;SDS011;14973;51.460;7.008;2022-10-18T12:49:27;23.90;;;6.80;;
27533;SDS011;14973;51.460;7.008;2022-10-18T12:54:33;22.33;;;8.18;;
27533;SDS011;14973;51.460;7.008;2022-10-18T12:57:02;20.33;;;8.77;;
27533;SDS011;14973;51.460;7.008;2022-10-18T13:17:38;20.75;;;5.13;;
27533;SDS011;14973;51.460;7.008;2022-10-18T13:28:16;19.07;;;5.60;;
27533;SDS011;14973;51.460;7.008;2022-10-18T13:33:42;27.05;;;6.57;;
27533;SDS011;14973;51.460;7.008;2022-10-18T13:46:17;13.52;;;3.33;;
27533;SDS011;14973;51.460;7.008;2022-10-18T14:11:03;15.55;;;3.78;;
27533;SDS011;14973;51.460;7.008;2022-10-18T14:13:46;19.33;;;3.67;;
27533;SDS011;14973;51.460;7.008;2022-10-18T14:16:33;11.90;;;2.92;;
27533;SDS011;14973;51.460;7.008;2022-10-18T14:25:40;9.07;;;2.90;;
27533;SDS011;14973;51.460;7.008;2022-10-18T14:30:35;12.90;;;2.85;;
27533;SDS011;14973;51.460;7.008;2022-10-18T14:33:02;14.45;;;3.15;;
27533;SDS011;14973;51.460;7.008;2022-10-18T14:35:31;16.75;;;3.30;;
27533;SDS011;14973;51.460;7.008;2022-10-18T14:37:59;17.85;;;3.17;;
27533;SDS011;14973;51.460;7.008;2022-10-18T14:40:44;22.92;;;4.03;;
27533;SDS011;14973;51.460;7.008;2022-10-18T14:43:11;15.70;;;4.10;;
27533;SDS011;14973;51.460;7.008;2022-10-18T14:45:38;17.23;;;3.30;;
27533;SDS011;14973;51.460;7.008;2022-10-18T14:48:15;23.02;;;6.03;;
27533;SDS011;14973;51.460;7.008;2022-10-18T14:50:45;14.52;;;3.35;;
27533;SDS011;14973;51.460;7.008;2022-10-18T14:53:16;19.13;;;2.92;;
27533;SDS011;14973;51.460;7.008;2022-10-18T14:55:55;13.73;;;3.33;;
27533;SDS011;14973;51.460;7.008;2022-10-18T14:58:24;9.52;;;2.70;;
27533;SDS011;14973;51.460;7.008;2022-10-18T15:00:51;14.25;;;2.58;;
27533;SDS011;14973;51.460;7.008;2022-10-18T15:03:18;15.35;;;2.80;;
27533;SDS011;14973;51.460;7.008;2022-10-18T15:05:54;13.00;;;2.13;;
27533;SDS011;14973;51.460;7.008;2022-10-18T15:08:43;14.63;;;2.60;;
27533;SDS011;14973;51.460;7.008;2022-10-18T15:13:40;17.42;;;4.10;;
27533;SDS011;14973;51.460;7.008;2022-10-18T15:16:15;12.15;;;2.38;;
27533;SDS011;14973;51.460;7.008;2022-10-18T15:18:42;15.32;;;2.80;;
27533;SDS011;14973;51.460;7.008;2022-10-18T15:21:22;14.70;;;2.85;;
27533;SDS011;14973;51.460;7.008;2022-10-18T15:23:49;14.55;;;2.25;;
27533;SDS011;14973;51.460;7.008;2022-10-18T15:26:24;10.10;;;2.58;;
27533;SDS011;14973;51.460;7.008;2022-10-18T15:28:53;13.43;;;2.50;;
27533;SDS011;14973;51.460;7.008;2022-10-18T15:31:22;16.95;;;2.72;;
27533;SDS011;14973;51.460;7.008;2022-10-18T15:33:51;14.30;;;2.72;;
27533;SDS011;14973;51.460;7.008;2022-10-18T15:36:25;12.95;;;2.70;;
27533;SDS011;14973;51.460;7.008;2022-10-18T15:39:02;14.75;;;3.13;;
27533;SDS011;14973;51.460;7.008;2022-10-18T15:41:58;19.08;;;3.20;;
27533;SDS011;14973;51.460;7.008;2022-10-18T15:44:26;16.77;;;2.17;;
27533;SDS011;14973;51.460;7.008;2022-10-18T15:46:54;15.30;;;2.13;;
27533;SDS011;14973;51.460;7.008;2022-10-18T15:54:59;14.68;;;2.60;;
27533;SDS011;14973;51.460;7.008;2022-10-18T15:57:27;28.80;;;10.18;;
27533;SDS011;14973;51.460;7.008;2022-10-18T16:00:03;18.33;;;3.90;;
27533;SDS011;14973;51.460;7.008;2022-10-18T16:02:31;12.82;;;2.20;;
27533;SDS011;14973;51.460;7.008;2022-10-18T16:04:57;10.93;;;2.33;;
27533;SDS011;14973;51.460;7.008;2022-10-18T16:07:24;16.60;;;2.60;;
27533;SDS011;14973;51.460;7.008;2022-10-18T16:09:50;9.52;;;2.38;;
27533;SDS011;14973;51.460;7.008;2022-10-18T16:12:15;10.48;;;2.45;;
27533;SDS011;14973;51.460;7.008;2022-10-18T16:14:41;12.40;;;2.22;;
27533;SDS011;14973;51.460;7.008;2022-10-18T16:17:06;13.48;;;2.65;;
27533;SDS011;14973;51.460;7.008;2022-10-18T16:19:40;12.52;;;2.67;;
27533;SDS011;14973;51.460;7.008;2022-10-18T16:22:08;16.65;;;2.55;;
27533;SDS011;14973;51.460;7.008;2022-10-18T16:24:36;17.88;;;2.53;;
27533;SDS011;14973;51.460;7.008;2022-10-18T16:27:02;10.32;;;2.28;;
27533;SDS011;14973;51.460;7.008;2022-10-18T16:29:28;18.00;;;2.88;;
27533;SDS011;14973;51.460;7.008;2022-10-18T16:31:56;14.75;;;2.85;;
27533;SDS011;14973;51.460;7.008;2022-10-18T16:34:22;10.48;;;2.53;;
27533;SDS011;14973;51.460;7.008;2022-10-18T16:36:50;10.18;;;3.35;;
27533;SDS011;14973;51.460;7.008;2022-10-18T16:39:16;16.00;;;5.47;;
27533;SDS011;14973;51.460;7.008;2022-10-18T16:41:43;18.30;;;6.63;;
27533;SDS011;14973;51.460;7.008;2022-10-18T16:44:10;11.32;;;3.65;;
27533;SDS011;14973;51.460;7.008;2022-10-18T16:46:36;10.30;;;2.55;;
27533;SDS011;14973;51.460;7.008;2022-10-18T16:49:02;20.17;;;2.80;;
27533;SDS011;14973;51.460;7.008;2022-10-18T16:51:29;17.13;;;2.85;;
27533;SDS011;14973;51.460;7.008;2022-10-18T16:53:54;15.93;;;2.70;;
27533;SDS011;14973;51.460;7.008;2022-10-18T16:56:23;10.13;;;2.90;;
27533;SDS011;14973;51.460;7.008;2022-10-18T16:58:51;15.75;;;3.33;;
27533;SDS011;14973;51.460;7.008;2022-10-18T17:01:18;25.05;;;3.45;;
27533;SDS011;14973;51.460;7.008;2022-10-18T17:03:45;17.67;;;3.25;;
27533;SDS011;14973;51.460;7.008;2022-10-18T17:06:14;26.25;;;5.22;;
27533;SDS011;14973;51.460;7.008;2022-10-18T17:08:43;18.80;;;3.15;;
27533;SDS011;14973;51.460;7.008;2022-10-18T17:11:09;20.30;;;3.35;;
27533;SDS011;14973;51.460;7.008;2022-10-18T17:13:35;13.68;;;3.55;;
27533;SDS011;14973;51.460;7.008;2022-10-18T17:16:01;12.30;;;4.10;;
27533;SDS011;14973;51.460;7.008;2022-10-18T17:18:28;11.88;;;3.42;;
27533;SDS011;14973;51.460;7.008;2022-10-18T17:20:55;16.75;;;3.47;;
27533;SDS011;14973;51.460;7.008;2022-10-18T17:23:23;11.55;;;3.47;;
27533;SDS011;14973;51.460;7.008;2022-10-18T17:25:49;22.55;;;4.32;;
27533;SDS011;14973;51.460;7.008;2022-10-18T17:28:15;8.63;;;3.25;;
27533;SDS011;14973;51.460;7.008;2022-10-18T17:30:42;14.38;;;3.40;;
27533;SDS011;14973;51.460;7.008;2022-10-18T17:33:08;19.73;;;3.20;;
27533;SDS011;14973;51.460;7.008;2022-10-18T17:35:35;14.82;;;3.42;;
27533;SDS011;14973;51.460;7.008;2022-10-18T17:38:01;16.33;;;3.90;;